Adamsville, RI

8:59 PM EDT on September 30, 2014 (GMT -0400)
New Bedford Regional | Change Station
CLOSE
Current Station
Airport
Location: New Bedford,
Elevation: 79 ft
Nearby Weather Stations

Elev 79 ft 41.68 °N, 70.96 °W | Updated 6 minutes ago

Overcast
Overcast
57 °F
Feels Like 57 °F
N
6
Wind Variable Wind from Variable

Today
High -- | Low -- °F
--% Chance of Precip.
Yesterday
High -- | Low -- °F
Precip. -- in
6:40 AM 6:28 PM
Waxing Crescent, 42% visible
Pressure 29.99 in
Visibility 9.0 miles
Clouds Overcast 400 ft
Dew Point 55 °F
Humidity 93%
Rainfall 0.05 in
Snow Depth Not available.
UV 0 out of 12
Pollen .40 out of 12
Air Quality Not available.
Flu Activity Not available.
METAR KEWB 010053Z VRB05KT 9SM -RA OVC004 14/13 A2999 RMK AO2 RAB53 SLP156 P0000 T01390128

More Conditions Fewer Conditions

Pressure 29.99 in
Visibility 9.0 miles
Clouds Overcast 400 ft
Dew Point 55 °F
Humidity 93%
Rainfall 0.05 in
Snow Depth Not available.
UV 0 out of 12
Pollen .40 out of 12
Air Quality Not available.
Flu Activity Not available.
METAR KEWB 010053Z VRB05KT 9SM -RA OVC004 14/13 A2999 RMK AO2 RAB53 SLP156 P0000 T01390128

More Conditions Fewer Conditions

10-Day Weather Forecast

Almanac

Astronomy

Sep. 30, 2014 Rise Set
Actual Time 6:40 AM EDT 6:28 PM EDT
Civil Twilight 6:12 AM EDT 6:55 PM EDT
Nautical Twilight 5:40 AM EDT 7:27 PM EDT
Astronomical Twilight 5:07 AM EDT 8:00 PM EDT
Moon 12:48 PM EDT (9/30) 10:51 PM EDT (9/30)
Length of Visible Light 12h 43m
Length of Day
11h 47m
Tomorrow will be 2m 45s shorter.
Waxing Crescent, 42% of the Moon is Illuminated
Today
Waxing Crescent
Oct 1
First Quarter
Oct 8
Full
Oct 15
Last Quarter
Oct 23
New

Today's Extremes

State Highs State Lows

Community

WunderPhotos

Upload Photos

1,757,801 photos uploaded!

Nearby

Air Quality

  Air Quality AQ Index Pollutant
Yesterday Moderate
PM2.5
Yesterday Good
OZONE
Tuesday Good
PM2.5
Tuesday Good
OZONE
Wednesday Good
PM2.5
Wednesday Good
OZONE

Snow Depth

Station Depth Elevation
No new snow has been reported.

Earthquake Activity

City Distance Mag. Time & Date
No recent earthquake activity has been reported nearby.
Minimum magnitude displayed is 2.5.

Coastal Water Temperatures

Place Temperature
Newport, RI 64.9 °F
Woods Hole, MA 66.9 °F
Quonset Point, RI 66.0 °F
Fall River, MA 68.0 °F
Conimicut Light, RI 66.9 °F

Nearby Weather Stations